sensor_id;sensor_type;location;lat;lon;timestamp;temperature;humidity
19252;DHT22;9760;50.944;5.304;2024-01-11T00:02:18;-4.00;99.90
19252;DHT22;9760;50.944;5.304;2024-01-11T00:04:44;-4.00;99.90
19252;DHT22;9760;50.944;5.304;2024-01-11T00:07:10;-4.00;99.90
19252;DHT22;9760;50.944;5.304;2024-01-11T00:09:42;-4.00;99.90
19252;DHT22;9760;50.944;5.304;2024-01-11T00:12:08;-4.00;99.90
19252;DHT22;9760;50.944;5.304;2024-01-11T00:14:35;-4.00;99.90
19252;DHT22;9760;50.944;5.304;2024-01-11T00:17:00;-4.00;99.90
19252;DHT22;9760;50.944;5.304;2024-01-11T00:19:26;-3.90;99.90
19252;DHT22;9760;50.944;5.304;2024-01-11T00:21:52;-4.00;99.90
19252;DHT22;9760;50.944;5.304;2024-01-11T00:24:17;-4.00;99.90
19252;DHT22;9760;50.944;5.304;2024-01-11T00:26:43;-4.00;99.90
19252;DHT22;9760;50.944;5.304;2024-01-11T00:29:09;-4.00;99.90
19252;DHT22;9760;50.944;5.304;2024-01-11T00:31:34;-4.00;99.90
19252;DHT22;9760;50.944;5.304;2024-01-11T00:34:01;-3.90;99.90
19252;DHT22;9760;50.944;5.304;2024-01-11T00:36:27;-3.90;99.90
19252;DHT22;9760;50.944;5.304;2024-01-11T00:38:54;-3.90;99.90
19252;DHT22;9760;50.944;5.304;2024-01-11T00:41:19;-4.00;99.90
19252;DHT22;9760;50.944;5.304;2024-01-11T00:43:45;-4.00;99.90
19252;DHT22;9760;50.944;5.304;2024-01-11T00:46:11;-4.00;99.90
19252;DHT22;9760;50.944;5.304;2024-01-11T00:48:36;-4.00;99.90
19252;DHT22;9760;50.944;5.304;2024-01-11T00:51:04;-4.00;99.90
19252;DHT22;9760;50.944;5.304;2024-01-11T00:53:30;-4.00;99.90
19252;DHT22;9760;50.944;5.304;2024-01-11T00:56:00;-4.00;99.90
19252;DHT22;9760;50.944;5.304;2024-01-11T00:58:25;-4.00;99.90
19252;DHT22;9760;50.944;5.304;2024-01-11T01:00:52;-4.00;99.90
19252;DHT22;9760;50.944;5.304;2024-01-11T01:03:21;-4.00;99.90
19252;DHT22;9760;50.944;5.304;2024-01-11T01:05:47;-4.00;99.90
19252;DHT22;9760;50.944;5.304;2024-01-11T01:08:13;-4.00;99.90
19252;DHT22;9760;50.944;5.304;2024-01-11T01:10:39;-4.00;99.90
19252;DHT22;9760;50.944;5.304;2024-01-11T01:13:05;-4.00;99.90
19252;DHT22;9760;50.944;5.304;2024-01-11T01:15:31;-4.00;99.90
19252;DHT22;9760;50.944;5.304;2024-01-11T01:17:56;-4.00;99.90
19252;DHT22;9760;50.944;5.304;2024-01-11T01:20:22;-4.00;99.90
19252;DHT22;9760;50.944;5.304;2024-01-11T01:22:49;-4.10;99.90
19252;DHT22;9760;50.944;5.304;2024-01-11T01:25:15;-4.10;99.90
19252;DHT22;9760;50.944;5.304;2024-01-11T01:27:41;-4.10;99.90
19252;DHT22;9760;50.944;5.304;2024-01-11T01:30:07;-4.20;99.90
19252;DHT22;9760;50.944;5.304;2024-01-11T01:32:34;-4.20;99.90
19252;DHT22;9760;50.944;5.304;2024-01-11T01:35:00;-4.30;99.90
19252;DHT22;9760;50.944;5.304;2024-01-11T01:37:25;-4.30;99.90
19252;DHT22;9760;50.944;5.304;2024-01-11T01:39:51;-4.30;99.90
19252;DHT22;9760;50.944;5.304;2024-01-11T01:42:17;-4.20;99.90
19252;DHT22;9760;50.944;5.304;2024-01-11T01:44:42;-4.20;99.90
19252;DHT22;9760;50.944;5.304;2024-01-11T01:47:10;-4.10;99.90
19252;DHT22;9760;50.944;5.304;2024-01-11T01:49:37;-4.10;99.90
19252;DHT22;9760;50.944;5.304;2024-01-11T01:52:04;-4.10;99.90
19252;DHT22;9760;50.944;5.304;2024-01-11T01:54:31;-4.10;99.90
19252;DHT22;9760;50.944;5.304;2024-01-11T01:56:58;-4.10;99.90
19252;DHT22;9760;50.944;5.304;2024-01-11T01:59:25;-4.20;99.90
19252;DHT22;9760;50.944;5.304;2024-01-11T02:01:51;-4.10;99.90
19252;DHT22;9760;50.944;5.304;2024-01-11T02:04:17;-4.10;99.90
19252;DHT22;9760;50.944;5.304;2024-01-11T02:06:45;-4.10;99.90
19252;DHT22;9760;50.944;5.304;2024-01-11T02:09:13;-4.10;99.90
19252;DHT22;9760;50.944;5.304;2024-01-11T02:11:39;-4.10;99.90
19252;DHT22;9760;50.944;5.304;2024-01-11T02:14:07;-4.10;99.90
19252;DHT22;9760;50.944;5.304;2024-01-11T02:16:32;-4.20;99.90
19252;DHT22;9760;50.944;5.304;2024-01-11T02:18:58;-4.20;99.90
19252;DHT22;9760;50.944;5.304;2024-01-11T02:21:27;-4.20;99.90
19252;DHT22;9760;50.944;5.304;2024-01-11T02:24:06;-4.20;99.90
19252;DHT22;9760;50.944;5.304;2024-01-11T02:26:33;-4.20;99.90
19252;DHT22;9760;50.944;5.304;2024-01-11T02:28:59;-4.10;99.90
19252;DHT22;9760;50.944;5.304;2024-01-11T02:31:25;-4.20;99.90
19252;DHT22;9760;50.944;5.304;2024-01-11T02:33:52;-4.20;99.90
19252;DHT22;9760;50.944;5.304;2024-01-11T02:36:20;-4.20;99.90
19252;DHT22;9760;50.944;5.304;2024-01-11T02:38:46;-4.20;99.90
19252;DHT22;9760;50.944;5.304;2024-01-11T02:41:12;-4.20;99.90
19252;DHT22;9760;50.944;5.304;2024-01-11T02:43:39;-4.20;99.90
19252;DHT22;9760;50.944;5.304;2024-01-11T02:46:04;-4.30;99.90
19252;DHT22;9760;50.944;5.304;2024-01-11T02:48:30;-4.20;99.90
19252;DHT22;9760;50.944;5.304;2024-01-11T02:50:57;-4.30;99.90
19252;DHT22;9760;50.944;5.304;2024-01-11T02:53:23;-4.20;99.90
19252;DHT22;9760;50.944;5.304;2024-01-11T02:55:49;-4.30;99.90
19252;DHT22;9760;50.944;5.304;2024-01-11T02:58:15;-4.30;99.90
19252;DHT22;9760;50.944;5.304;2024-01-11T03:00:41;-4.30;99.90
19252;DHT22;9760;50.944;5.304;2024-01-11T03:03:07;-4.30;99.90
19252;DHT22;9760;50.944;5.304;2024-01-11T03:05:32;-4.40;99.90
19252;DHT22;9760;50.944;5.304;2024-01-11T03:07:58;-4.30;99.90
19252;DHT22;9760;50.944;5.304;2024-01-11T03:10:24;-4.40;99.90
19252;DHT22;9760;50.944;5.304;2024-01-11T03:12:50;-4.40;99.90
19252;DHT22;9760;50.944;5.304;2024-01-11T03:15:16;-4.30;99.90
19252;DHT22;9760;50.944;5.304;2024-01-11T03:17:41;-4.40;99.90
19252;DHT22;9760;50.944;5.304;2024-01-11T03:20:07;-4.30;99.90
19252;DHT22;9760;50.944;5.304;2024-01-11T03:22:33;-4.40;99.90
19252;DHT22;9760;50.944;5.304;2024-01-11T03:25:00;-4.60;99.90
19252;DHT22;9760;50.944;5.304;2024-01-11T03:27:26;-4.50;99.90
19252;DHT22;9760;50.944;5.304;2024-01-11T03:29:51;-4.50;99.90
19252;DHT22;9760;50.944;5.304;2024-01-11T03:32:17;-4.50;99.90
19252;DHT22;9760;50.944;5.304;2024-01-11T03:34:43;-4.40;99.90
19252;DHT22;9760;50.944;5.304;2024-01-11T03:37:08;-4.40;99.90
19252;DHT22;9760;50.944;5.304;2024-01-11T03:39:34;-4.50;99.90
19252;DHT22;9760;50.944;5.304;2024-01-11T03:42:00;-4.40;99.90
19252;DHT22;9760;50.944;5.304;2024-01-11T03:44:26;-4.50;99.90
19252;DHT22;9760;50.944;5.304;2024-01-11T03:46:52;-4.50;99.90
19252;DHT22;9760;50.944;5.304;2024-01-11T03:49:18;-4.60;99.90
19252;DHT22;9760;50.944;5.304;2024-01-11T03:51:43;-4.60;99.90
19252;DHT22;9760;50.944;5.304;2024-01-11T03:54:09;-4.70;99.90
19252;DHT22;9760;50.944;5.304;2024-01-11T03:56:39;-4.70;99.90
19252;DHT22;9760;50.944;5.304;2024-01-11T03:59:05;-4.70;99.90
19252;DHT22;9760;50.944;5.304;2024-01-11T04:01:32;-4.70;99.90
19252;DHT22;9760;50.944;5.304;2024-01-11T04:03:57;-4.70;99.90
19252;DHT22;9760;50.944;5.304;2024-01-11T04:06:24;-4.70;99.90
19252;DHT22;9760;50.944;5.304;2024-01-11T04:08:50;-4.70;99.90
19252;DHT22;9760;50.944;5.304;2024-01-11T04:11:17;-4.70;99.90
19252;DHT22;9760;50.944;5.304;2024-01-11T04:13:43;-4.70;99.90
19252;DHT22;9760;50.944;5.304;2024-01-11T04:16:09;-4.80;99.90
19252;DHT22;9760;50.944;5.304;2024-01-11T04:18:34;-4.80;99.90
19252;DHT22;9760;50.944;5.304;2024-01-11T04:21:00;-4.80;99.90
19252;DHT22;9760;50.944;5.304;2024-01-11T04:23:26;-4.80;99.90
19252;DHT22;9760;50.944;5.304;2024-01-11T04:25:51;-4.80;99.90
19252;DHT22;9760;50.944;5.304;2024-01-11T04:28:17;-4.80;99.90
19252;DHT22;9760;50.944;5.304;2024-01-11T04:30:43;-4.80;99.90
19252;DHT22;9760;50.944;5.304;2024-01-11T04:33:09;-4.80;99.90
19252;DHT22;9760;50.944;5.304;2024-01-11T04:35:35;-4.80;99.90
19252;DHT22;9760;50.944;5.304;2024-01-11T04:38:01;-4.90;99.90
19252;DHT22;9760;50.944;5.304;2024-01-11T04:40:27;-4.90;99.90
19252;DHT22;9760;50.944;5.304;2024-01-11T04:42:52;-4.90;99.90
19252;DHT22;9760;50.944;5.304;2024-01-11T04:45:18;-4.80;99.90
19252;DHT22;9760;50.944;5.304;2024-01-11T04:47:44;-4.90;99.90
19252;DHT22;9760;50.944;5.304;2024-01-11T04:50:09;-4.90;99.90
19252;DHT22;9760;50.944;5.304;2024-01-11T04:52:35;-4.80;99.90
19252;DHT22;9760;50.944;5.304;2024-01-11T04:55:01;-4.90;99.90
19252;DHT22;9760;50.944;5.304;2024-01-11T04:57:27;-4.90;99.90
19252;DHT22;9760;50.944;5.304;2024-01-11T04:59:53;-4.90;99.90
19252;DHT22;9760;50.944;5.304;2024-01-11T05:02:20;-5.00;99.90
19252;DHT22;9760;50.944;5.304;2024-01-11T05:04:47;-5.00;99.90
19252;DHT22;9760;50.944;5.304;2024-01-11T05:07:13;-5.00;99.90
19252;DHT22;9760;50.944;5.304;2024-01-11T05:09:39;-5.00;99.90
19252;DHT22;9760;50.944;5.304;2024-01-11T05:12:05;-4.90;99.90
19252;DHT22;9760;50.944;5.304;2024-01-11T05:14:31;-4.80;99.90
19252;DHT22;9760;50.944;5.304;2024-01-11T05:16:56;-4.90;99.90
19252;DHT22;9760;50.944;5.304;2024-01-11T05:19:22;-4.90;99.90
19252;DHT22;9760;50.944;5.304;2024-01-11T05:21:48;-4.90;99.90
19252;DHT22;9760;50.944;5.304;2024-01-11T05:24:13;-4.90;99.90
19252;DHT22;9760;50.944;5.304;2024-01-11T05:26:39;-4.80;99.90
19252;DHT22;9760;50.944;5.304;2024-01-11T05:29:05;-4.80;99.90
19252;DHT22;9760;50.944;5.304;2024-01-11T05:31:30;-4.80;99.90
19252;DHT22;9760;50.944;5.304;2024-01-11T05:33:56;-4.80;99.90
19252;DHT22;9760;50.944;5.304;2024-01-11T05:36:22;-4.80;99.90
19252;DHT22;9760;50.944;5.304;2024-01-11T05:38:47;-4.90;99.90
19252;DHT22;9760;50.944;5.304;2024-01-11T05:41:13;-4.80;99.90
19252;DHT22;9760;50.944;5.304;2024-01-11T05:43:40;-4.90;99.90
19252;DHT22;9760;50.944;5.304;2024-01-11T05:46:06;-5.00;99.90
19252;DHT22;9760;50.944;5.304;2024-01-11T05:48:32;-5.00;99.90
19252;DHT22;9760;50.944;5.304;2024-01-11T05:50:58;-5.00;99.90
19252;DHT22;9760;50.944;5.304;2024-01-11T05:53:24;-5.00;99.90
19252;DHT22;9760;50.944;5.304;2024-01-11T05:55:50;-5.10;99.90
19252;DHT22;9760;50.944;5.304;2024-01-11T05:58:16;-5.10;99.90
19252;DHT22;9760;50.944;5.304;2024-01-11T06:00:42;-5.10;99.90
19252;DHT22;9760;50.944;5.304;2024-01-11T06:03:08;-5.10;99.90
19252;DHT22;9760;50.944;5.304;2024-01-11T06:05:33;-5.10;99.90
19252;DHT22;9760;50.944;5.304;2024-01-11T06:07:59;-5.10;99.90
19252;DHT22;9760;50.944;5.304;2024-01-11T06:10:24;-5.20;99.90
19252;DHT22;9760;50.944;5.304;2024-01-11T06:12:50;-5.10;99.90
19252;DHT22;9760;50.944;5.304;2024-01-11T06:15:16;-5.10;99.90
19252;DHT22;9760;50.944;5.304;2024-01-11T06:17:41;-5.10;99.90
19252;DHT22;9760;50.944;5.304;2024-01-11T06:20:07;-5.10;99.90
19252;DHT22;9760;50.944;5.304;2024-01-11T06:22:35;-5.00;99.90
19252;DHT22;9760;50.944;5.304;2024-01-11T06:25:01;-5.00;99.90
19252;DHT22;9760;50.944;5.304;2024-01-11T06:27:26;-5.00;99.90
19252;DHT22;9760;50.944;5.304;2024-01-11T06:29:52;-5.00;99.90
19252;DHT22;9760;50.944;5.304;2024-01-11T06:32:18;-5.10;99.90
19252;DHT22;9760;50.944;5.304;2024-01-11T06:34:44;-5.10;99.90
19252;DHT22;9760;50.944;5.304;2024-01-11T06:37:11;-5.10;99.90
19252;DHT22;9760;50.944;5.304;2024-01-11T06:39:37;-5.10;99.90
19252;DHT22;9760;50.944;5.304;2024-01-11T06:42:03;-5.10;99.90
19252;DHT22;9760;50.944;5.304;2024-01-11T06:44:29;-5.10;99.90
19252;DHT22;9760;50.944;5.304;2024-01-11T06:46:54;-5.10;99.90
19252;DHT22;9760;50.944;5.304;2024-01-11T06:49:20;-5.10;99.90
19252;DHT22;9760;50.944;5.304;2024-01-11T06:51:45;-5.10;99.90
19252;DHT22;9760;50.944;5.304;2024-01-11T06:54:11;-5.20;99.90
19252;DHT22;9760;50.944;5.304;2024-01-11T06:56:37;-5.20;99.90
19252;DHT22;9760;50.944;5.304;2024-01-11T06:59:02;-5.20;99.90
19252;DHT22;9760;50.944;5.304;2024-01-11T07:01:28;-5.20;99.90
19252;DHT22;9760;50.944;5.304;2024-01-11T07:03:54;-5.30;99.90
19252;DHT22;9760;50.944;5.304;2024-01-11T07:06:20;-5.30;99.90
19252;DHT22;9760;50.944;5.304;2024-01-11T07:08:45;-5.40;99.90
19252;DHT22;9760;50.944;5.304;2024-01-11T07:11:12;-5.50;99.90
19252;DHT22;9760;50.944;5.304;2024-01-11T07:13:38;-5.50;99.90
19252;DHT22;9760;50.944;5.304;2024-01-11T07:16:04;-5.50;99.90
19252;DHT22;9760;50.944;5.304;2024-01-11T07:18:30;-5.50;99.90
19252;DHT22;9760;50.944;5.304;2024-01-11T07:20:59;-5.40;99.90
19252;DHT22;9760;50.944;5.304;2024-01-11T07:23:25;-5.40;99.90
19252;DHT22;9760;50.944;5.304;2024-01-11T07:25:50;-5.40;99.90
19252;DHT22;9760;50.944;5.304;2024-01-11T07:28:16;-5.40;99.90
19252;DHT22;9760;50.944;5.304;2024-01-11T07:30:43;-5.40;99.90
19252;DHT22;9760;50.944;5.304;2024-01-11T07:33:08;-5.50;99.90
19252;DHT22;9760;50.944;5.304;2024-01-11T07:35:35;-5.40;99.90
19252;DHT22;9760;50.944;5.304;2024-01-11T07:38:01;-5.40;99.90
19252;DHT22;9760;50.944;5.304;2024-01-11T07:40:26;-5.30;99.90
19252;DHT22;9760;50.944;5.304;2024-01-11T07:42:52;-5.30;99.90
19252;DHT22;9760;50.944;5.304;2024-01-11T07:45:18;-5.30;99.90
19252;DHT22;9760;50.944;5.304;2024-01-11T07:47:44;-5.30;99.90
19252;DHT22;9760;50.944;5.304;2024-01-11T07:50:10;-5.20;99.90
19252;DHT22;9760;50.944;5.304;2024-01-11T07:52:36;-5.20;99.90
19252;DHT22;9760;50.944;5.304;2024-01-11T07:55:03;-5.20;99.90
19252;DHT22;9760;50.944;5.304;2024-01-11T07:57:36;-5.30;99.90
19252;DHT22;9760;50.944;5.304;2024-01-11T08:00:02;-5.40;99.90
19252;DHT22;9760;50.944;5.304;2024-01-11T08:02:29;-5.50;99.90
19252;DHT22;9760;50.944;5.304;2024-01-11T08:04:55;-5.40;99.90
19252;DHT22;9760;50.944;5.304;2024-01-11T08:07:20;-5.40;99.90
19252;DHT22;9760;50.944;5.304;2024-01-11T08:09:47;-5.40;99.90
19252;DHT22;9760;50.944;5.304;2024-01-11T08:12:16;-5.30;99.90
19252;DHT22;9760;50.944;5.304;2024-01-11T08:14:42;-5.30;99.90
19252;DHT22;9760;50.944;5.304;2024-01-11T08:17:08;-5.30;99.90
19252;DHT22;9760;50.944;5.304;2024-01-11T08:19:34;-5.30;99.90
19252;DHT22;9760;50.944;5.304;2024-01-11T08:22:00;-5.30;99.90
19252;DHT22;9760;50.944;5.304;2024-01-11T08:24:26;-5.30;99.90
19252;DHT22;9760;50.944;5.304;2024-01-11T08:26:52;-5.20;99.90
19252;DHT22;9760;50.944;5.304;2024-01-11T08:29:18;-5.20;99.90
19252;DHT22;9760;50.944;5.304;2024-01-11T08:31:48;-5.20;99.90
19252;DHT22;9760;50.944;5.304;2024-01-11T08:34:13;-5.20;99.90
19252;DHT22;9760;50.944;5.304;2024-01-11T08:36:39;-5.20;99.90
19252;DHT22;9760;50.944;5.304;2024-01-11T08:39:05;-5.20;99.90
19252;DHT22;9760;50.944;5.304;2024-01-11T08:41:32;-5.10;99.90
19252;DHT22;9760;50.944;5.304;2024-01-11T08:43:58;-5.10;99.90
19252;DHT22;9760;50.944;5.304;2024-01-11T08:46:27;-5.10;99.90
19252;DHT22;9760;50.944;5.304;2024-01-11T08:48:54;-5.10;99.90
19252;DHT22;9760;50.944;5.304;2024-01-11T08:51:21;-5.00;99.90
19252;DHT22;9760;50.944;5.304;2024-01-11T08:53:47;-4.90;99.90
19252;DHT22;9760;50.944;5.304;2024-01-11T08:56:12;-4.90;99.90
19252;DHT22;9760;50.944;5.304;2024-01-11T08:58:40;-4.80;99.90
19252;DHT22;9760;50.944;5.304;2024-01-11T09:01:06;-4.80;99.90
19252;DHT22;9760;50.944;5.304;2024-01-11T09:03:36;-4.80;99.90
19252;DHT22;9760;50.944;5.304;2024-01-11T09:06:04;-4.60;99.90
19252;DHT22;9760;50.944;5.304;2024-01-11T09:08:30;-4.70;99.90
19252;DHT22;9760;50.944;5.304;2024-01-11T09:10:56;-4.60;99.90
19252;DHT22;9760;50.944;5.304;2024-01-11T09:13:24;-4.50;99.90
19252;DHT22;9760;50.944;5.304;2024-01-11T09:15:51;-4.50;99.90
19252;DHT22;9760;50.944;5.304;2024-01-11T09:18:17;-4.50;99.90
19252;DHT22;9760;50.944;5.304;2024-01-11T09:20:43;-4.50;99.90
19252;DHT22;9760;50.944;5.304;2024-01-11T09:23:09;-4.50;99.90
19252;DHT22;9760;50.944;5.304;2024-01-11T09:25:34;-4.40;99.90
19252;DHT22;9760;50.944;5.304;2024-01-11T09:28:00;-4.40;99.90
19252;DHT22;9760;50.944;5.304;2024-01-11T09:30:26;-4.30;99.90
19252;DHT22;9760;50.944;5.304;2024-01-11T09:32:52;-4.40;99.90
19252;DHT22;9760;50.944;5.304;2024-01-11T09:35:18;-4.30;99.90
19252;DHT22;9760;50.944;5.304;2024-01-11T09:37:44;-4.10;99.90
19252;DHT22;9760;50.944;5.304;2024-01-11T09:40:11;-4.20;99.90
19252;DHT22;9760;50.944;5.304;2024-01-11T09:42:37;-4.00;99.90
19252;DHT22;9760;50.944;5.304;2024-01-11T09:45:14;-3.90;99.90
19252;DHT22;9760;50.944;5.304;2024-01-11T09:47:41;-3.70;99.90
19252;DHT22;9760;50.944;5.304;2024-01-11T09:50:07;-3.60;99.90
19252;DHT22;9760;50.944;5.304;2024-01-11T09:52:33;-3.60;99.90
19252;DHT22;9760;50.944;5.304;2024-01-11T09:55:00;-3.60;99.90
19252;DHT22;9760;50.944;5.304;2024-01-11T09:57:31;-3.60;99.90
19252;DHT22;9760;50.944;5.304;2024-01-11T10:00:03;-3.50;99.90
19252;DHT22;9760;50.944;5.304;2024-01-11T10:02:32;-3.40;99.90
19252;DHT22;9760;50.944;5.304;2024-01-11T10:04:59;-3.10;99.90
19252;DHT22;9760;50.944;5.304;2024-01-11T10:07:25;-2.40;99.90
19252;DHT22;9760;50.944;5.304;2024-01-11T10:09:51;-1.90;99.90
19252;DHT22;9760;50.944;5.304;2024-01-11T10:12:23;-1.20;99.90
19252;DHT22;9760;50.944;5.304;2024-01-11T10:14:50;-0.70;99.90
19252;DHT22;9760;50.944;5.304;2024-01-11T10:17:17;-0.50;99.90
19252;DHT22;9760;50.944;5.304;2024-01-11T10:19:43;-0.60;99.90
19252;DHT22;9760;50.944;5.304;2024-01-11T10:22:09;-0.90;99.90
19252;DHT22;9760;50.944;5.304;2024-01-11T10:24:38;-1.00;99.90
19252;DHT22;9760;50.944;5.304;2024-01-11T10:27:04;-0.60;99.90
19252;DHT22;9760;50.944;5.304;2024-01-11T10:29:34;-0.10;99.90
19252;DHT22;9760;50.944;5.304;2024-01-11T10:32:06;0.10;99.90
19252;DHT22;9760;50.944;5.304;2024-01-11T10:34:31;0.40;99.90
19252;DHT22;9760;50.944;5.304;2024-01-11T10:36:57;0.20;99.90
19252;DHT22;9760;50.944;5.304;2024-01-11T10:39:26;0.10;99.90
19252;DHT22;9760;50.944;5.304;2024-01-11T10:42:06;0.30;99.90
19252;DHT22;9760;50.944;5.304;2024-01-11T10:44:35;0.50;99.90
19252;DHT22;9760;50.944;5.304;2024-01-11T10:47:04;0.90;99.90
19252;DHT22;9760;50.944;5.304;2024-01-11T10:49:33;1.10;99.90
19252;DHT22;9760;50.944;5.304;2024-01-11T10:52:05;0.80;99.90
19252;DHT22;9760;50.944;5.304;2024-01-11T10:54:34;1.20;99.90
19252;DHT22;9760;50.944;5.304;2024-01-11T10:57:00;1.30;99.90
19252;DHT22;9760;50.944;5.304;2024-01-11T10:59:27;0.60;99.90
19252;DHT22;9760;50.944;5.304;2024-01-11T11:01:57;-0.20;99.90
19252;DHT22;9760;50.944;5.304;2024-01-11T11:04:24;-0.60;99.90
19252;DHT22;9760;50.944;5.304;2024-01-11T11:06:55;-0.90;99.90
19252;DHT22;9760;50.944;5.304;2024-01-11T11:09:23;-1.30;99.90
19252;DHT22;9760;50.944;5.304;2024-01-11T11:11:49;-1.30;99.90
19252;DHT22;9760;50.944;5.304;2024-01-11T11:14:15;-1.30;99.90
19252;DHT22;9760;50.944;5.304;2024-01-11T11:16:41;-1.40;99.90
19252;DHT22;9760;50.944;5.304;2024-01-11T11:19:07;-1.30;99.90
19252;DHT22;9760;50.944;5.304;2024-01-11T11:21:44;-1.30;99.90
19252;DHT22;9760;50.944;5.304;2024-01-11T11:24:14;-1.20;99.90
19252;DHT22;9760;50.944;5.304;2024-01-11T11:26:42;-1.10;99.90
19252;DHT22;9760;50.944;5.304;2024-01-11T11:29:08;-1.00;99.90
19252;DHT22;9760;50.944;5.304;2024-01-11T11:31:44;-0.90;99.90
19252;DHT22;9760;50.944;5.304;2024-01-11T11:34:20;-0.90;99.90
19252;DHT22;9760;50.944;5.304;2024-01-11T11:36:50;-0.80;99.90
19252;DHT22;9760;50.944;5.304;2024-01-11T11:39:20;-0.70;99.90
19252;DHT22;9760;50.944;5.304;2024-01-11T11:41:47;-0.70;99.90
19252;DHT22;9760;50.944;5.304;2024-01-11T11:44:16;-0.70;99.90
19252;DHT22;9760;50.944;5.304;2024-01-11T11:46:42;-0.60;99.90
19252;DHT22;9760;50.944;5.304;2024-01-11T11:49:09;-0.50;99.90
19252;DHT22;9760;50.944;5.304;2024-01-11T11:51:39;-0.50;99.90
19252;DHT22;9760;50.944;5.304;2024-01-11T11:54:04;-0.50;99.90
19252;DHT22;9760;50.944;5.304;2024-01-11T11:56:30;-0.40;99.90
19252;DHT22;9760;50.944;5.304;2024-01-11T11:58:56;-0.30;99.90
19252;DHT22;9760;50.944;5.304;2024-01-11T12:01:22;-0.30;99.90
19252;DHT22;9760;50.944;5.304;2024-01-11T12:03:48;-0.30;99.90
19252;DHT22;9760;50.944;5.304;2024-01-11T12:06:16;-0.30;99.90
19252;DHT22;9760;50.944;5.304;2024-01-11T12:08:46;-0.20;99.90
19252;DHT22;9760;50.944;5.304;2024-01-11T12:11:20;-0.20;99.90
19252;DHT22;9760;50.944;5.304;2024-01-11T12:13:47;-0.20;99.90
19252;DHT22;9760;50.944;5.304;2024-01-11T12:16:13;-0.10;99.90
19252;DHT22;9760;50.944;5.304;2024-01-11T12:18:39;-0.10;99.90
19252;DHT22;9760;50.944;5.304;2024-01-11T12:21:05;0.00;99.90
19252;DHT22;9760;50.944;5.304;2024-01-11T12:23:33;0.00;99.90
19252;DHT22;9760;50.944;5.304;2024-01-11T12:26:01;0.10;99.90
19252;DHT22;9760;50.944;5.304;2024-01-11T12:28:31;0.10;99.90
19252;DHT22;9760;50.944;5.304;2024-01-11T12:30:57;0.10;99.90
19252;DHT22;9760;50.944;5.304;2024-01-11T12:33:23;0.10;99.90
19252;DHT22;9760;50.944;5.304;2024-01-11T12:35:50;0.20;99.90
19252;DHT22;9760;50.944;5.304;2024-01-11T12:38:16;0.20;99.90
19252;DHT22;9760;50.944;5.304;2024-01-11T12:40:41;0.20;99.90
19252;DHT22;9760;50.944;5.304;2024-01-11T12:43:08;0.20;99.90
19252;DHT22;9760;50.944;5.304;2024-01-11T12:45:37;0.20;99.90
19252;DHT22;9760;50.944;5.304;2024-01-11T12:48:03;0.10;99.90
19252;DHT22;9760;50.944;5.304;2024-01-11T12:50:33;0.10;99.90
19252;DHT22;9760;50.944;5.304;2024-01-11T12:53:09;0.10;99.90
19252;DHT22;9760;50.944;5.304;2024-01-11T12:55:37;0.20;99.90
19252;DHT22;9760;50.944;5.304;2024-01-11T12:58:09;0.10;99.90
19252;DHT22;9760;50.944;5.304;2024-01-11T13:00:36;0.10;99.90
19252;DHT22;9760;50.944;5.304;2024-01-11T13:03:03;0.20;99.90
19252;DHT22;9760;50.944;5.304;2024-01-11T13:05:29;0.20;99.90
19252;DHT22;9760;50.944;5.304;2024-01-11T13:08:09;0.30;99.90
19252;DHT22;9760;50.944;5.304;2024-01-11T13:10:35;0.30;99.90
19252;DHT22;9760;50.944;5.304;2024-01-11T13:13:01;0.30;99.90
19252;DHT22;9760;50.944;5.304;2024-01-11T13:15:27;0.30;99.90
19252;DHT22;9760;50.944;5.304;2024-01-11T13:17:55;0.30;99.90
19252;DHT22;9760;50.944;5.304;2024-01-11T13:20:22;0.30;99.90
19252;DHT22;9760;50.944;5.304;2024-01-11T13:22:48;0.30;99.90
19252;DHT22;9760;50.944;5.304;2024-01-11T13:25:13;0.30;99.90
19252;DHT22;9760;50.944;5.304;2024-01-11T13:27:39;0.40;99.90
19252;DHT22;9760;50.944;5.304;2024-01-11T13:30:05;0.40;99.90
19252;DHT22;9760;50.944;5.304;2024-01-11T13:32:34;0.40;99.90
19252;DHT22;9760;50.944;5.304;2024-01-11T13:34:59;0.50;99.90
19252;DHT22;9760;50.944;5.304;2024-01-11T13:37:25;0.50;99.90
19252;DHT22;9760;50.944;5.304;2024-01-11T13:39:51;0.50;99.90
19252;DHT22;9760;50.944;5.304;2024-01-11T13:42:16;0.50;99.90
19252;DHT22;9760;50.944;5.304;2024-01-11T13:44:42;0.50;99.90
19252;DHT22;9760;50.944;5.304;2024-01-11T13:47:07;0.50;99.90
19252;DHT22;9760;50.944;5.304;2024-01-11T13:49:33;0.60;99.90
19252;DHT22;9760;50.944;5.304;2024-01-11T13:52:00;0.60;99.90
19252;DHT22;9760;50.944;5.304;2024-01-11T13:54:25;0.70;99.90
19252;DHT22;9760;50.944;5.304;2024-01-11T13:56:51;0.70;99.90
19252;DHT22;9760;50.944;5.304;2024-01-11T13:59:18;0.70;99.90
19252;DHT22;9760;50.944;5.304;2024-01-11T14:01:43;0.70;99.90
19252;DHT22;9760;50.944;5.304;2024-01-11T14:04:09;0.70;99.90
19252;DHT22;9760;50.944;5.304;2024-01-11T14:06:35;0.70;99.90
19252;DHT22;9760;50.944;5.304;2024-01-11T14:09:00;0.70;99.90
19252;DHT22;9760;50.944;5.304;2024-01-11T14:11:26;0.70;99.90
19252;DHT22;9760;50.944;5.304;2024-01-11T14:13:52;0.70;99.90
19252;DHT22;9760;50.944;5.304;2024-01-11T14:16:17;0.70;99.90
19252;DHT22;9760;50.944;5.304;2024-01-11T14:18:43;0.70;99.90
19252;DHT22;9760;50.944;5.304;2024-01-11T14:21:08;0.70;99.90
19252;DHT22;9760;50.944;5.304;2024-01-11T14:23:37;0.80;99.90
19252;DHT22;9760;50.944;5.304;2024-01-11T14:26:03;0.80;99.90
19252;DHT22;9760;50.944;5.304;2024-01-11T14:28:29;0.70;99.90
19252;DHT22;9760;50.944;5.304;2024-01-11T14:30:55;0.70;99.90
19252;DHT22;9760;50.944;5.304;2024-01-11T14:33:20;0.70;99.90
19252;DHT22;9760;50.944;5.304;2024-01-11T14:35:46;0.60;99.90
19252;DHT22;9760;50.944;5.304;2024-01-11T14:38:12;0.60;99.90
19252;DHT22;9760;50.944;5.304;2024-01-11T14:40:37;0.60;99.90
19252;DHT22;9760;50.944;5.304;2024-01-11T14:43:03;0.60;99.90
19252;DHT22;9760;50.944;5.304;2024-01-11T14:45:30;0.60;99.90
19252;DHT22;9760;50.944;5.304;2024-01-11T14:47:55;0.60;99.90
19252;DHT22;9760;50.944;5.304;2024-01-11T14:50:21;0.60;99.90
19252;DHT22;9760;50.944;5.304;2024-01-11T14:52:47;0.60;99.90
19252;DHT22;9760;50.944;5.304;2024-01-11T14:55:13;0.60;99.90
19252;DHT22;9760;50.944;5.304;2024-01-11T14:57:39;0.60;99.90
19252;DHT22;9760;50.944;5.304;2024-01-11T15:00:05;0.60;99.90
19252;DHT22;9760;50.944;5.304;2024-01-11T15:02:33;0.60;99.90
19252;DHT22;9760;50.944;5.304;2024-01-11T15:04:59;0.50;99.90
19252;DHT22;9760;50.944;5.304;2024-01-11T15:07:25;0.50;99.90
19252;DHT22;9760;50.944;5.304;2024-01-11T15:09:51;0.50;99.90
19252;DHT22;9760;50.944;5.304;2024-01-11T15:12:17;0.50;99.90
19252;DHT22;9760;50.944;5.304;2024-01-11T15:14:45;0.40;99.90
19252;DHT22;9760;50.944;5.304;2024-01-11T15:17:10;0.40;99.90
19252;DHT22;9760;50.944;5.304;2024-01-11T15:19:36;0.40;99.90
19252;DHT22;9760;50.944;5.304;2024-01-11T15:22:02;0.40;99.90
19252;DHT22;9760;50.944;5.304;2024-01-11T15:24:28;0.40;99.90
19252;DHT22;9760;50.944;5.304;2024-01-11T15:26:54;0.40;99.90
19252;DHT22;9760;50.944;5.304;2024-01-11T15:29:19;0.30;99.90
19252;DHT22;9760;50.944;5.304;2024-01-11T15:31:45;0.30;99.90
19252;DHT22;9760;50.944;5.304;2024-01-11T15:34:12;0.20;99.90
19252;DHT22;9760;50.944;5.304;2024-01-11T15:36:38;0.20;99.90
19252;DHT22;9760;50.944;5.304;2024-01-11T15:39:05;0.10;99.90
19252;DHT22;9760;50.944;5.304;2024-01-11T15:41:31;0.10;99.90
19252;DHT22;9760;50.944;5.304;2024-01-11T15:43:56;0.00;99.90
19252;DHT22;9760;50.944;5.304;2024-01-11T15:46:24;0.00;99.90